Terminal Aerodrome Forecast
Issued by NWS Detroit/Pontiac, MI

Home | Current Version | Previous Version | Text Only | Print | Product List | Glossary On
Versions: 1 2 3 4 5 6 7 8 9 10 11 12 13 14 15 16
000
FTUS43 KDTX 301120
TAFFNT
TAF
KFNT 301120Z 3012/0112 VRB03KT P6SM OVC024
     FM301500 25006KT P6SM BKN040
      TEMPO 3019/3022 4SM TSRA OVC028CB
     FM010100 28006KT P6SM BKN060
     FM010700 30006KT P6SM OVC007=

USA.gov is the U.S. government's official web portal to all federal, state and local government web resources and services.